createdAt,value
2022-09-11T00:00:53.937Z,18.90
2022-09-11T00:03:37.334Z,14.80
2022-09-11T00:06:12.381Z,17.50
2022-09-11T00:08:45.335Z,15.90
2022-09-11T00:11:19.676Z,18.80
2022-09-11T00:13:54.116Z,15.90
2022-09-11T00:16:28.704Z,15.30
2022-09-11T00:19:04.172Z,14.70
2022-09-11T00:21:36.501Z,15.60
2022-09-11T00:24:10.149Z,14.50
2022-09-11T00:26:42.751Z,13.90
2022-09-11T00:29:14.763Z,13.90
2022-09-11T00:31:46.714Z,15.30
2022-09-11T00:34:18.892Z,14.50
2022-09-11T00:36:51.304Z,17.30
2022-09-11T00:39:23.195Z,15.00
2022-09-11T00:41:55.427Z,14.80
2022-09-11T00:45:02.007Z,16.60
2022-09-11T00:47:35.297Z,14.80
2022-09-11T00:50:14.831Z,17.10
2022-09-11T00:52:54.902Z,18.80
2022-09-11T00:55:32.286Z,16.60
2022-09-11T00:58:07.352Z,17.00
2022-09-11T01:00:40.575Z,18.00
2022-09-11T01:03:12.794Z,18.10
2022-09-11T01:05:44.935Z,20.00
2022-09-11T01:08:17.128Z,19.40
2022-09-11T01:11:01.552Z,22.70
2022-09-11T01:13:38.906Z,24.40
2022-09-11T01:16:19.959Z,24.10
2022-09-11T01:19:02.200Z,23.60
2022-09-11T01:22:02.291Z,23.60
2022-09-11T01:24:56.529Z,23.30
2022-09-11T01:27:50.741Z,22.60
2022-09-11T01:30:25.153Z,23.10
2022-09-11T01:33:12.381Z,23.20
2022-09-11T01:35:55.286Z,23.10
2022-09-11T01:38:34.854Z,20.40
2022-09-11T01:41:12.551Z,21.20
2022-09-11T01:43:51.458Z,21.10
2022-09-11T01:46:27.318Z,18.90
2022-09-11T01:49:04.932Z,20.40
2022-09-11T01:51:39.121Z,19.60
2022-09-11T01:54:16.464Z,19.50
2022-09-11T01:56:52.554Z,18.00
2022-09-11T01:59:29.124Z,20.30
2022-09-11T02:02:07.776Z,18.60
2022-09-11T02:04:43.645Z,19.60
2022-09-11T02:07:19.246Z,20.40
2022-09-11T02:09:59.379Z,21.20
2022-09-11T02:12:41.535Z,21.90
2022-09-11T02:15:16.973Z,23.00
2022-09-11T02:17:55.629Z,22.00
2022-09-11T02:20:31.423Z,23.00
2022-09-11T02:23:03.352Z,21.90
2022-09-11T02:25:35.347Z,22.20
2022-09-11T02:28:10.788Z,22.20
2022-09-11T02:30:43.991Z,21.10
2022-09-11T02:33:36.012Z,22.90
2022-09-11T02:36:22.379Z,21.50
2022-09-11T02:39:08.850Z,23.40
2022-09-11T02:41:52.743Z,20.70
2022-09-11T02:44:36.533Z,24.00
2022-09-11T02:47:20.255Z,22.40
2022-09-11T02:50:07.360Z,26.90
2022-09-11T02:52:50.727Z,22.60
2022-09-11T02:55:30.242Z,26.10
2022-09-11T02:58:08.705Z,25.90
2022-09-11T03:00:41.095Z,22.00
2022-09-11T03:03:13.514Z,23.80
2022-09-11T03:05:46.646Z,24.00
2022-09-11T03:08:19.366Z,24.00
2022-09-11T03:10:51.205Z,23.10
2022-09-11T03:13:23.180Z,25.00
2022-09-11T03:15:55.388Z,22.90
2022-09-11T03:18:27.342Z,21.80
2022-09-11T03:20:59.166Z,19.20
2022-09-11T03:23:31.926Z,19.50
2022-09-11T03:26:03.759Z,24.70
2022-09-11T03:28:35.816Z,22.40
2022-09-11T03:31:13.423Z,21.30
2022-09-11T03:33:45.333Z,20.40
2022-09-11T03:36:19.517Z,17.90
2022-09-11T03:38:52.883Z,21.80
2022-09-11T03:41:26.226Z,20.70
2022-09-11T03:43:58.290Z,20.10
2022-09-11T03:46:30.158Z,20.80
2022-09-11T03:49:02.885Z,22.20
2022-09-11T03:51:35.969Z,21.00
2022-09-11T03:54:08.027Z,17.50
2022-09-11T03:56:40.047Z,16.90
2022-09-11T03:59:12.776Z,18.10
2022-09-11T04:01:44.638Z,19.70
2022-09-11T04:04:17.336Z,17.90
2022-09-11T04:06:49.159Z,19.60
2022-09-11T04:09:21.214Z,17.80
2022-09-11T04:11:54.847Z,18.60
2022-09-11T04:14:30.043Z,18.30
2022-09-11T04:17:03.166Z,19.10
2022-09-11T04:19:34.995Z,19.90
2022-09-11T04:22:07.143Z,18.60
2022-09-11T04:24:40.818Z,19.40
2022-09-11T04:27:12.996Z,19.10
2022-09-11T04:29:44.879Z,19.60
2022-09-11T04:32:17.198Z,19.50
2022-09-11T04:34:49.447Z,19.50
2022-09-11T04:37:22.076Z,18.80
2022-09-11T04:39:54.277Z,17.70
2022-09-11T04:42:27.095Z,16.30
2022-09-11T04:44:59.320Z,17.80
2022-09-11T04:47:31.496Z,18.10
2022-09-11T04:50:03.356Z,17.30
2022-09-11T04:52:35.314Z,15.50
2022-09-11T04:55:08.805Z,15.60
2022-09-11T04:57:41.115Z,15.30
2022-09-11T05:00:15.615Z,17.10
2022-09-11T05:02:48.755Z,16.90
2022-09-11T05:05:21.637Z,17.60
2022-09-11T05:07:53.581Z,18.40
2022-09-11T05:10:27.277Z,15.80
2022-09-11T05:12:59.289Z,17.50
2022-09-11T05:15:33.141Z,15.30
2022-09-11T05:18:05.380Z,17.10
2022-09-11T05:20:37.638Z,18.80
2022-09-11T05:23:09.555Z,14.50
2022-09-11T05:25:42.020Z,14.60
2022-09-11T05:28:13.820Z,14.00
2022-09-11T05:30:46.007Z,14.80
2022-09-11T05:33:17.917Z,11.60
2022-09-11T05:35:51.216Z,10.80
2022-09-11T05:38:24.848Z,11.80
2022-09-11T05:40:57.370Z,12.10
2022-09-11T05:43:29.278Z,12.50
2022-09-11T05:46:02.038Z,11.30
2022-09-11T05:48:35.251Z,12.80
2022-09-11T05:51:10.792Z,12.90
2022-09-11T05:53:43.686Z,11.60
2022-09-11T05:56:18.049Z,10.30
2022-09-11T05:58:52.668Z,11.90
2022-09-11T06:01:27.768Z,10.20
2022-09-11T06:04:09.771Z,10.40
2022-09-11T06:06:42.132Z,12.10
2022-09-11T06:09:14.150Z,13.20
2022-09-11T06:11:46.057Z,10.90
2022-09-11T06:14:18.212Z,10.40
2022-09-11T06:16:50.737Z,12.80
2022-09-11T06:19:22.980Z,10.80
2022-09-11T06:21:56.426Z,10.50
2022-09-11T06:27:02.277Z,9.70
2022-09-11T06:29:34.326Z,11.30
2022-09-11T06:32:06.837Z,10.80
2022-09-11T06:34:39.318Z,12.50
2022-09-11T06:37:13.302Z,9.40
2022-09-11T06:39:45.852Z,10.20
2022-09-11T06:42:23.615Z,11.90
2022-09-11T06:44:55.945Z,12.90
2022-09-11T06:47:29.051Z,11.90
2022-09-11T06:50:02.710Z,14.00
2022-09-11T06:52:43.988Z,11.50
2022-09-11T06:55:27.891Z,11.10
2022-09-11T06:58:04.089Z,10.80
2022-09-11T07:00:37.707Z,10.70
2022-09-11T07:03:09.925Z,11.60
2022-09-11T07:05:48.463Z,11.50
2022-09-11T07:08:24.841Z,13.10
2022-09-11T07:11:03.585Z,12.30
2022-09-11T07:13:46.053Z,12.10
2022-09-11T07:16:19.685Z,10.00
2022-09-11T07:18:56.435Z,11.50
2022-09-11T07:21:29.096Z,13.40
2022-09-11T07:24:04.014Z,12.90
2022-09-11T07:26:40.297Z,12.30
2022-09-11T07:29:19.848Z,12.10
2022-09-11T07:31:55.884Z,10.60
2022-09-11T07:34:30.448Z,14.10
2022-09-11T07:37:03.869Z,12.20
2022-09-11T07:39:36.253Z,11.40
2022-09-11T07:42:19.210Z,13.40
2022-09-11T07:44:51.765Z,10.90
2022-09-11T07:47:23.899Z,12.30
2022-09-11T07:49:56.927Z,16.30
2022-09-11T07:52:29.511Z,12.20
2022-09-11T07:55:04.548Z,13.80
2022-09-11T07:57:38.839Z,14.30
2022-09-11T08:00:16.384Z,13.60
2022-09-11T08:02:59.176Z,14.30
2022-09-11T08:05:38.048Z,14.30
2022-09-11T08:08:10.280Z,12.60
2022-09-11T08:10:42.942Z,14.40
2022-09-11T08:13:16.834Z,18.20
2022-09-11T08:15:51.944Z,13.70
2022-09-11T08:18:24.836Z,16.10
2022-09-11T08:21:01.703Z,13.20
2022-09-11T08:23:34.228Z,11.80
2022-09-11T08:26:12.193Z,15.00
2022-09-11T08:28:46.082Z,18.50
2022-09-11T08:31:18.933Z,17.10
2022-09-11T08:33:51.216Z,14.30
2022-09-11T08:36:25.204Z,10.80
2022-09-11T08:38:57.672Z,17.40
2022-09-11T08:41:41.167Z,12.10
2022-09-11T08:44:21.003Z,15.60
2022-09-11T08:46:57.901Z,17.40
2022-09-11T08:49:35.569Z,12.40
2022-09-11T08:52:12.387Z,16.90
2022-09-11T08:54:47.549Z,13.00
2022-09-11T08:57:25.410Z,21.50
2022-09-11T09:00:07.591Z,16.60
2022-09-11T09:02:58.699Z,13.80
2022-09-11T09:05:38.652Z,13.30
2022-09-11T09:08:25.470Z,18.50
2022-09-11T09:11:06.316Z,15.70
2022-09-11T09:13:54.889Z,12.40
2022-09-11T09:16:46.489Z,14.00
2022-09-11T09:19:25.615Z,14.10
2022-09-11T09:22:06.936Z,11.50
2022-09-11T09:24:44.558Z,11.30
2022-09-11T09:27:21.500Z,11.90
2022-09-11T09:30:02.013Z,12.20
2022-09-11T09:32:40.327Z,9.20
2022-09-11T09:35:17.937Z,8.90
2022-09-11T09:37:49.965Z,9.20
2022-09-11T09:40:24.871Z,9.30
2022-09-11T09:43:12.260Z,7.30
2022-09-11T09:48:25.579Z,8.90
2022-09-11T09:50:57.447Z,5.70
2022-09-11T09:53:36.064Z,6.80
2022-09-11T09:56:08.960Z,7.10
2022-09-11T09:58:50.058Z,6.60
2022-09-11T10:01:47.753Z,7.90
2022-09-11T10:04:23.891Z,9.20
2022-09-11T10:07:08.419Z,7.60
2022-09-11T10:09:48.337Z,5.80
2022-09-11T10:12:26.523Z,9.00
2022-09-11T10:15:01.456Z,8.30
2022-09-11T10:17:37.538Z,9.30
2022-09-11T10:20:25.945Z,10.10
2022-09-11T10:23:18.549Z,7.30
2022-09-11T10:25:52.005Z,9.60
2022-09-11T10:28:32.213Z,7.70
2022-09-11T10:31:06.131Z,10.00
2022-09-11T10:33:42.710Z,7.20
2022-09-11T10:36:22.690Z,8.70
2022-09-11T10:38:56.245Z,10.80
2022-09-11T10:41:32.303Z,7.40
2022-09-11T10:44:07.853Z,10.10
2022-09-11T10:46:41.477Z,9.90
2022-09-11T10:49:22.835Z,9.40
2022-09-11T10:52:17.354Z,8.40
2022-09-11T10:55:04.831Z,10.30
2022-09-11T10:57:45.132Z,7.90
2022-09-11T11:00:21.606Z,11.80
2022-09-11T11:02:57.054Z,12.00
2022-09-11T11:05:34.629Z,12.40
2022-09-11T11:08:23.867Z,8.30
2022-09-11T11:11:07.610Z,9.30
2022-09-11T11:13:55.741Z,9.20
2022-09-11T11:16:43.053Z,11.80
2022-09-11T11:22:16.542Z,12.00
2022-09-11T11:25:05.157Z,9.90
2022-09-11T11:28:00.479Z,9.90
2022-09-11T11:30:37.833Z,10.30
2022-09-11T11:33:35.484Z,9.30
2022-09-11T11:36:15.380Z,9.60
2022-09-11T11:39:00.297Z,10.90
2022-09-11T11:41:38.821Z,11.00
2022-09-11T11:44:17.338Z,12.50
2022-09-11T11:46:55.628Z,14.80
2022-09-11T11:49:39.801Z,8.30
2022-09-11T11:52:24.775Z,9.40
2022-09-11T11:55:02.901Z,13.00
2022-09-11T11:57:41.904Z,10.20
2022-09-11T12:00:19.368Z,11.50
2022-09-11T12:02:59.101Z,13.20
2022-09-11T12:05:34.832Z,12.80
2022-09-11T12:08:11.899Z,9.00
2022-09-11T12:10:48.037Z,13.10
2022-09-11T12:13:31.002Z,16.20
2022-09-11T12:16:12.487Z,11.20
2022-09-11T12:19:02.192Z,11.40
2022-09-11T12:21:40.759Z,11.00
2022-09-11T12:24:19.855Z,10.20
2022-09-11T12:27:29.292Z,8.80
2022-09-11T12:30:21.442Z,11.30
2022-09-11T12:32:55.035Z,12.90
2022-09-11T12:35:41.674Z,8.60
2022-09-11T12:38:24.085Z,9.80
2022-09-11T12:40:59.921Z,10.50
2022-09-11T12:43:47.745Z,8.10
2022-09-11T12:46:55.166Z,11.70
2022-09-11T12:49:28.770Z,10.00
2022-09-11T12:52:03.264Z,12.30
2022-09-11T12:54:41.064Z,12.10
2022-09-11T12:57:21.347Z,11.90
2022-09-11T13:00:00.266Z,10.30
2022-09-11T13:02:39.337Z,8.90
2022-09-11T13:05:23.596Z,10.50
2022-09-11T13:07:59.636Z,8.20
2022-09-11T13:10:37.526Z,6.20
2022-09-11T13:13:44.911Z,6.20
2022-09-11T13:16:25.804Z,7.30
2022-09-11T13:19:03.051Z,9.00
2022-09-11T13:21:40.540Z,5.20
2022-09-11T13:24:27.552Z,7.30
2022-09-11T13:29:37.949Z,6.80
2022-09-11T13:32:14.780Z,4.50
2022-09-11T13:34:50.002Z,7.00
2022-09-11T13:37:35.810Z,5.10
2022-09-11T13:40:19.001Z,6.10
2022-09-11T13:42:51.845Z,5.60
2022-09-11T13:45:25.061Z,5.00
2022-09-11T13:47:58.082Z,5.30
2022-09-11T13:50:30.064Z,5.70
2022-09-11T13:53:03.362Z,5.90
2022-09-11T13:55:35.463Z,8.10
2022-09-11T13:58:24.648Z,5.60
2022-09-11T14:00:56.998Z,4.80
2022-09-11T14:03:31.859Z,9.10
2022-09-11T14:06:10.074Z,9.70
2022-09-11T14:08:46.746Z,10.10
2022-09-11T14:11:26.197Z,4.70
2022-09-11T14:14:01.026Z,6.00
2022-09-11T14:16:36.319Z,5.00
2022-09-11T14:19:14.300Z,6.90
2022-09-11T14:21:48.455Z,7.30
2022-09-11T14:24:32.658Z,8.20
2022-09-11T14:27:27.554Z,3.70
2022-09-11T14:30:00.623Z,8.40
2022-09-11T14:32:36.950Z,7.00
2022-09-11T14:35:12.755Z,6.40
2022-09-11T14:37:47.187Z,8.30
2022-09-11T14:40:20.406Z,6.30
2022-09-11T14:42:52.823Z,5.60
2022-09-11T14:45:26.961Z,3.70
2022-09-11T14:47:58.851Z,5.70
2022-09-11T14:50:30.963Z,4.60
2022-09-11T14:53:02.978Z,5.30
2022-09-11T14:55:36.660Z,3.40
2022-09-11T14:58:09.105Z,4.30
2022-09-11T15:00:41.754Z,5.30
2022-09-11T15:03:15.155Z,3.60
2022-09-11T15:05:49.011Z,4.10
2022-09-11T15:08:20.881Z,6.40
2022-09-11T15:10:54.557Z,3.70
2022-09-11T15:13:27.291Z,3.10
2022-09-11T15:15:59.251Z,3.10
2022-09-11T15:18:31.440Z,4.20
2022-09-11T15:21:03.280Z,4.10
2022-09-11T15:23:35.165Z,4.00
2022-09-11T15:26:08.378Z,7.00
2022-09-11T15:28:40.185Z,3.20
2022-09-11T15:31:12.559Z,5.90
2022-09-11T15:33:47.643Z,3.10
2022-09-11T15:36:21.465Z,4.60
2022-09-11T15:38:56.816Z,4.50
2022-09-11T15:41:30.195Z,6.10
2022-09-11T15:44:02.746Z,9.40
2022-09-11T15:46:35.367Z,6.60
2022-09-11T15:49:07.690Z,4.70
2022-09-11T15:51:41.198Z,5.60
2022-09-11T15:54:15.851Z,5.30
2022-09-11T15:56:48.153Z,3.20
2022-09-11T15:59:20.491Z,3.00
2022-09-11T16:01:52.389Z,4.20
2022-09-11T16:04:29.179Z,5.30
2022-09-11T16:07:01.537Z,5.60
2022-09-11T16:09:34.425Z,3.50
2022-09-11T16:12:07.497Z,3.40
2022-09-11T16:14:40.026Z,8.10
2022-09-11T16:17:16.822Z,3.80
2022-09-11T16:19:49.240Z,2.60
2022-09-11T16:22:21.193Z,8.20
2022-09-11T16:24:53.256Z,3.70
2022-09-11T16:27:25.912Z,5.90
2022-09-11T16:32:50.754Z,4.40
2022-09-11T16:35:23.573Z,3.70
2022-09-11T16:37:56.258Z,3.60
2022-09-11T16:40:28.175Z,5.60
2022-09-11T16:43:00.217Z,5.20
2022-09-11T16:45:32.801Z,3.10
2022-09-11T16:48:06.703Z,3.40
2022-09-11T16:50:39.456Z,6.30
2022-09-11T16:53:13.998Z,7.00
2022-09-11T16:55:47.319Z,6.90
2022-09-11T16:58:19.475Z,5.80
2022-09-11T17:00:51.872Z,7.60
2022-09-11T17:03:23.872Z,4.10
2022-09-11T17:05:57.862Z,4.70
2022-09-11T17:08:30.485Z,6.10
2022-09-11T17:11:04.620Z,7.30
2022-09-11T17:13:37.413Z,6.50
2022-09-11T17:16:16.634Z,8.00
2022-09-11T17:18:51.153Z,11.60
2022-09-11T17:21:25.338Z,9.40
2022-09-11T17:24:00.025Z,6.60
2022-09-11T17:26:32.685Z,5.90
2022-09-11T17:29:06.508Z,8.40
2022-09-11T17:31:38.864Z,5.90
2022-09-11T17:34:10.889Z,7.30
2022-09-11T17:36:43.314Z,6.00
2022-09-11T17:39:15.304Z,7.50
2022-09-11T17:41:47.196Z,8.20
2022-09-11T17:44:19.246Z,7.30
2022-09-11T17:46:52.169Z,7.90
2022-09-11T17:49:24.044Z,8.10
2022-09-11T17:51:57.135Z,7.30
2022-09-11T17:54:29.596Z,6.70
2022-09-11T17:57:01.933Z,4.70
2022-09-11T17:59:33.907Z,6.10
2022-09-11T18:02:06.647Z,9.10
2022-09-11T18:04:38.930Z,9.90
2022-09-11T18:07:11.112Z,7.30
2022-09-11T18:09:43.435Z,7.90
2022-09-11T18:12:15.667Z,8.40
2022-09-11T18:14:48.047Z,7.30
2022-09-11T18:17:20.218Z,8.40
2022-09-11T18:19:52.030Z,7.00
2022-09-11T18:22:24.427Z,6.80
2022-09-11T18:24:56.464Z,6.60
2022-09-11T18:27:29.766Z,6.10
2022-09-11T18:30:02.385Z,6.90
2022-09-11T18:32:34.732Z,8.50
2022-09-11T18:35:07.967Z,6.70
2022-09-11T18:37:40.030Z,7.60
2022-09-11T18:40:12.594Z,10.60
2022-09-11T18:42:46.852Z,9.50
2022-09-11T18:45:20.643Z,5.50
2022-09-11T18:47:54.641Z,8.10
2022-09-11T18:50:27.314Z,6.30
2022-09-11T18:53:00.160Z,8.80
2022-09-11T18:55:32.280Z,8.90
2022-09-11T18:58:04.973Z,4.80
2022-09-11T19:00:38.056Z,4.70
2022-09-11T19:03:10.891Z,5.70
2022-09-11T19:05:42.676Z,7.00
2022-09-11T19:08:14.669Z,7.00
2022-09-11T19:10:46.567Z,6.80
2022-09-11T19:13:18.998Z,12.40
2022-09-11T19:16:00.380Z,5.40
2022-09-11T19:18:33.033Z,8.20
2022-09-11T19:21:08.327Z,7.50
2022-09-11T19:23:41.892Z,6.20
2022-09-11T19:26:19.387Z,6.70
2022-09-11T19:31:25.027Z,7.40
2022-09-11T19:34:01.007Z,8.90
2022-09-11T19:36:35.480Z,5.20
2022-09-11T19:39:08.167Z,6.20
2022-09-11T19:41:40.845Z,6.90
2022-09-11T19:44:14.691Z,6.00
2022-09-11T19:46:49.121Z,8.60
2022-09-11T19:49:21.196Z,5.30
2022-09-11T19:51:54.717Z,7.00
2022-09-11T19:54:26.904Z,6.50
2022-09-11T19:57:00.303Z,6.40
2022-09-11T19:59:32.925Z,7.20
2022-09-11T20:02:05.073Z,7.30
2022-09-11T20:04:37.326Z,4.30
2022-09-11T20:07:09.282Z,5.60
2022-09-11T20:09:42.993Z,8.80
2022-09-11T20:12:15.410Z,5.40
2022-09-11T20:14:48.604Z,6.10
2022-09-11T20:17:20.436Z,6.90
2022-09-11T20:19:52.827Z,5.80
2022-09-11T20:22:24.854Z,5.70
2022-09-11T20:24:56.676Z,4.70
2022-09-11T20:27:28.663Z,7.60
2022-09-11T20:30:00.838Z,5.00
2022-09-11T20:32:33.092Z,6.80
2022-09-11T20:35:05.695Z,8.50
2022-09-11T20:37:37.753Z,4.30
2022-09-11T20:40:12.377Z,7.10
2022-09-11T20:42:44.296Z,4.00
2022-09-11T20:45:16.510Z,8.70
2022-09-11T20:47:48.874Z,7.90
2022-09-11T20:50:20.826Z,7.10
2022-09-11T20:52:52.875Z,7.40
2022-09-11T20:55:24.685Z,5.60
2022-09-11T20:57:56.638Z,5.70
2022-09-11T21:00:28.671Z,9.40
2022-09-11T21:03:00.938Z,4.60
2022-09-11T21:05:33.131Z,5.50
2022-09-11T21:08:05.647Z,4.10
2022-09-11T21:10:39.535Z,9.10
2022-09-11T21:13:11.906Z,5.00
2022-09-11T21:15:48.086Z,7.10
2022-09-11T21:18:20.746Z,11.20
2022-09-11T21:20:57.204Z,7.10
2022-09-11T21:23:29.197Z,7.60
2022-09-11T21:26:01.147Z,6.50
2022-09-11T21:28:33.356Z,6.50
2022-09-11T21:31:05.738Z,6.40
2022-09-11T21:33:38.864Z,7.80
2022-09-11T21:36:11.064Z,6.80
2022-09-11T21:38:43.209Z,5.80
2022-09-11T21:41:16.116Z,5.20
2022-09-11T21:43:48.794Z,5.90
2022-09-11T21:46:21.179Z,5.40
2022-09-11T21:48:52.990Z,4.60
2022-09-11T21:51:25.439Z,6.00
2022-09-11T21:54:01.761Z,4.40
2022-09-11T21:56:34.958Z,4.70
2022-09-11T21:59:06.887Z,6.30
2022-09-11T22:01:38.835Z,4.80
2022-09-11T22:04:10.764Z,4.30
2022-09-11T22:06:42.663Z,6.70
2022-09-11T22:09:20.281Z,4.90
2022-09-11T22:11:54.780Z,4.90
2022-09-11T22:14:28.981Z,6.50
2022-09-11T22:17:00.909Z,7.90
2022-09-11T22:19:32.968Z,4.40
2022-09-11T22:22:06.710Z,9.40
2022-09-11T22:24:39.174Z,6.00
2022-09-11T22:27:11.693Z,5.40
2022-09-11T22:29:47.028Z,10.30
2022-09-11T22:32:19.025Z,11.40
2022-09-11T22:34:50.973Z,4.60
2022-09-11T22:37:23.672Z,7.90
2022-09-11T22:39:55.528Z,4.40
2022-09-11T22:42:27.392Z,6.30
2022-09-11T22:44:59.204Z,5.70
2022-09-11T22:47:31.369Z,10.50
2022-09-11T22:50:03.276Z,7.60
2022-09-11T22:52:35.801Z,5.90
2022-09-11T22:55:10.756Z,9.80
2022-09-11T22:57:42.975Z,6.00
2022-09-11T23:00:16.224Z,4.60
2022-09-11T23:02:48.069Z,4.50
2022-09-11T23:05:37.527Z,5.20
2022-09-11T23:08:09.478Z,7.60
2022-09-11T23:10:45.317Z,6.40
2022-09-11T23:13:17.444Z,9.40
2022-09-11T23:15:49.804Z,5.70
2022-09-11T23:18:22.357Z,10.10
2022-09-11T23:20:56.741Z,5.30
2022-09-11T23:23:28.696Z,6.70
2022-09-11T23:26:00.677Z,8.20
2022-09-11T23:28:34.631Z,5.60
2022-09-11T23:31:13.337Z,5.00
2022-09-11T23:33:47.271Z,8.20
2022-09-11T23:36:19.956Z,7.50
2022-09-11T23:38:52.432Z,6.60
2022-09-11T23:41:25.291Z,8.70
2022-09-11T23:43:57.176Z,5.00
2022-09-11T23:46:29.175Z,6.40
2022-09-11T23:49:01.495Z,7.70
2022-09-11T23:51:33.299Z,5.20
2022-09-11T23:54:05.232Z,6.90
2022-09-11T23:56:37.292Z,4.20
2022-09-11T23:59:09.236Z,6.40
